createdAt,value
2019-05-14T00:01:27.905Z,6.55
2019-05-14T00:06:33.758Z,6.44
2019-05-14T00:11:41.850Z,6.26
2019-05-14T00:16:47.008Z,6.10
2019-05-14T00:21:52.203Z,6.10
2019-05-14T00:26:58.597Z,6.03
2019-05-14T00:32:04.267Z,5.98
2019-05-14T00:37:11.488Z,5.91
2019-05-14T00:42:17.186Z,5.84
2019-05-14T00:47:22.709Z,5.76
2019-05-14T00:52:28.202Z,5.58
2019-05-14T00:57:33.435Z,5.41
2019-05-14T01:02:41.627Z,5.46
2019-05-14T01:07:46.464Z,5.46
2019-05-14T01:12:52.204Z,5.42
2019-05-14T01:17:58.321Z,5.24
2019-05-14T01:23:04.365Z,5.13
2019-05-14T01:28:11.300Z,5.20
2019-05-14T01:33:16.612Z,5.25
2019-05-14T01:38:22.290Z,5.33
2019-05-14T01:43:27.943Z,5.46
2019-05-14T01:48:33.473Z,5.53
2019-05-14T01:53:41.727Z,5.62
2019-05-14T01:58:47.995Z,5.68
2019-05-14T02:03:53.198Z,5.65
2019-05-14T02:08:58.372Z,5.68
2019-05-14T02:14:03.604Z,5.70
2019-05-14T02:19:08.782Z,5.80
2019-05-14T02:24:14.310Z,5.78
2019-05-14T02:29:21.430Z,5.77
2019-05-14T02:34:29.773Z,5.65
2019-05-14T02:39:33.685Z,5.56
2019-05-14T02:44:40.743Z,5.48
2019-05-14T02:49:46.054Z,5.36
2019-05-14T02:54:51.234Z,5.24
2019-05-14T02:59:59.486Z,5.09
2019-05-14T03:05:03.499Z,4.81
2019-05-14T03:10:09.930Z,4.50
2019-05-14T03:15:15.883Z,4.27
2019-05-14T03:20:21.169Z,4.11
2019-05-14T03:25:29.734Z,4.24
2019-05-14T03:30:34.380Z,4.26
2019-05-14T03:35:44.313Z,4.39
2019-05-14T03:40:49.480Z,4.39
2019-05-14T03:45:54.625Z,4.44
2019-05-14T03:51:00.555Z,4.45
2019-05-14T03:56:06.245Z,4.38
2019-05-14T04:01:11.626Z,4.35
2019-05-14T04:06:19.152Z,4.29
2019-05-14T04:11:29.303Z,4.41
2019-05-14T04:16:39.938Z,4.41
2019-05-14T04:21:48.864Z,4.38
2019-05-14T04:27:05.865Z,4.44
2019-05-14T04:32:04.144Z,4.36
2019-05-14T04:37:10.006Z,4.33
2019-05-14T04:42:15.613Z,4.35
2019-05-14T04:47:31.338Z,4.47
2019-05-14T04:52:29.300Z,4.52
2019-05-14T04:57:35.358Z,4.51
2019-05-14T05:02:40.894Z,4.54
2019-05-14T05:07:48.957Z,4.51
2019-05-14T05:12:52.946Z,4.54
2019-05-14T05:17:58.929Z,4.57
2019-05-14T05:23:04.463Z,4.65
2019-05-14T05:28:10.061Z,4.77
2019-05-14T05:33:15.216Z,4.93
2019-05-14T05:38:20.959Z,5.03
2019-05-14T05:43:28.400Z,5.09
2019-05-14T05:48:33.343Z,5.20
2019-05-14T05:53:39.305Z,5.30
2019-05-14T05:58:44.852Z,5.35
2019-05-14T06:03:50.005Z,5.42
2019-05-14T06:08:55.477Z,5.48
2019-05-14T06:14:01.029Z,5.58
2019-05-14T06:19:08.261Z,5.72
2019-05-14T06:24:13.469Z,5.82
2019-05-14T06:29:18.772Z,5.98
2019-05-14T06:34:23.937Z,6.25
2019-05-14T06:39:29.241Z,6.55
2019-05-14T06:44:34.414Z,6.76
2019-05-14T06:49:40.180Z,7.05
2019-05-14T06:54:45.482Z,7.17
2019-05-14T06:59:50.757Z,7.31
2019-05-14T07:04:55.899Z,7.35
2019-05-14T07:10:01.058Z,7.30
2019-05-14T07:15:09.260Z,7.32
2019-05-14T07:20:15.564Z,7.46
2019-05-14T07:25:20.793Z,7.39
2019-05-14T07:30:28.318Z,7.36
2019-05-14T07:35:33.285Z,7.45
2019-05-14T07:40:39.401Z,7.56
2019-05-14T07:45:44.703Z,7.60
2019-05-14T07:50:52.123Z,7.65
2019-05-14T07:55:59.104Z,7.98
2019-05-14T08:01:03.895Z,8.27
2019-05-14T08:06:09.535Z,8.52
2019-05-14T08:11:15.102Z,8.76
2019-05-14T08:16:20.395Z,8.96
2019-05-14T08:21:28.352Z,8.95
2019-05-14T08:26:33.652Z,8.54
2019-05-14T08:31:40.424Z,8.73
2019-05-14T08:36:48.187Z,8.68
2019-05-14T08:41:59.480Z,8.91
2019-05-14T08:47:00.993Z,8.93
2019-05-14T08:52:08.611Z,9.24
2019-05-14T08:57:13.674Z,9.46
2019-05-14T09:02:19.840Z,9.79
2019-05-14T09:07:28.889Z,10.11
2019-05-14T09:12:33.573Z,10.14
2019-05-14T09:17:39.241Z,10.09
2019-05-14T09:22:44.647Z,10.22
2019-05-14T09:27:50.218Z,9.96
2019-05-14T09:32:55.446Z,9.99
2019-05-14T09:38:00.996Z,10.29
2019-05-14T09:43:09.039Z,10.09
2019-05-14T09:48:13.182Z,9.99
2019-05-14T09:53:18.415Z,10.18
2019-05-14T09:58:24.009Z,10.02
2019-05-14T10:03:29.259Z,10.34
2019-05-14T10:08:35.088Z,10.40
2019-05-14T10:13:40.343Z,10.37
2019-05-14T10:18:45.423Z,10.36
2019-05-14T10:23:50.953Z,10.20
2019-05-14T10:28:56.167Z,9.67
2019-05-14T10:34:02.217Z,9.59
2019-05-14T10:39:09.372Z,9.66
2019-05-14T10:44:14.773Z,9.66
2019-05-14T10:49:23.645Z,9.93
2019-05-14T10:54:29.181Z,10.44
2019-05-14T10:59:34.009Z,10.28
2019-05-14T11:04:39.608Z,10.37
2019-05-14T11:09:45.165Z,10.22
2019-05-14T11:14:51.660Z,10.57
2019-05-14T11:19:58.661Z,11.09
2019-05-14T11:25:04.249Z,10.36
2019-05-14T11:30:10.368Z,9.90
2019-05-14T11:35:15.879Z,9.89
2019-05-14T11:40:21.414Z,10.03
2019-05-14T11:45:26.984Z,10.14
2019-05-14T11:50:32.268Z,10.56
2019-05-14T11:55:38.805Z,11.21
2019-05-14T12:00:45.174Z,11.53
2019-05-14T12:05:50.449Z,11.16
2019-05-14T12:10:55.965Z,11.05
2019-05-14T12:16:01.849Z,10.83
2019-05-14T12:21:08.971Z,10.60
2019-05-14T12:26:14.031Z,10.76
2019-05-14T12:31:19.665Z,10.75
2019-05-14T12:36:25.326Z,10.96
2019-05-14T12:41:30.568Z,11.35
2019-05-14T12:46:35.798Z,11.23
2019-05-14T12:51:42.612Z,11.27
2019-05-14T12:56:49.459Z,11.34
2019-05-14T13:01:54.862Z,11.29
2019-05-14T13:07:00.894Z,11.24
2019-05-14T13:12:10.965Z,11.55
2019-05-14T13:17:13.414Z,12.07
2019-05-14T13:22:30.286Z,12.50
2019-05-14T13:27:28.813Z,13.19
2019-05-14T13:32:34.162Z,13.29
2019-05-14T13:37:39.962Z,12.01
2019-05-14T13:42:45.647Z,11.67
2019-05-14T13:47:50.846Z,11.89
2019-05-14T13:53:02.995Z,11.77
2019-05-14T13:58:03.128Z,12.01
2019-05-14T14:03:10.145Z,12.63
2019-05-14T14:08:15.301Z,12.12
2019-05-14T14:13:20.540Z,13.24
2019-05-14T14:18:26.526Z,13.75
2019-05-14T14:23:32.479Z,13.31
2019-05-14T14:28:39.670Z,12.51
2019-05-14T14:33:44.638Z,11.80
2019-05-14T14:38:50.104Z,11.16
2019-05-14T14:43:56.121Z,11.35
2019-05-14T14:49:02.965Z,11.24
2019-05-14T14:54:15.263Z,11.62
2019-05-14T14:59:15.193Z,11.43
2019-05-14T15:04:21.294Z,11.55
2019-05-14T15:09:26.521Z,11.55
2019-05-14T15:14:31.753Z,11.31
2019-05-14T15:19:39.473Z,11.19
2019-05-14T15:24:44.247Z,11.28
2019-05-14T15:29:49.478Z,11.23
2019-05-14T15:34:59.379Z,11.21
2019-05-14T15:40:04.337Z,11.39
2019-05-14T15:45:10.059Z,11.59
2019-05-14T15:50:15.417Z,11.70
2019-05-14T15:55:21.338Z,12.59
2019-05-14T16:00:29.333Z,12.43
2019-05-14T16:05:39.030Z,12.10
2019-05-14T16:10:42.360Z,12.01
2019-05-14T16:15:48.467Z,11.83
2019-05-14T16:20:54.098Z,11.35
2019-05-14T16:25:59.332Z,11.19
2019-05-14T16:31:04.562Z,11.07
2019-05-14T16:36:10.218Z,10.81
2019-05-14T16:41:18.261Z,10.81
2019-05-14T16:46:22.741Z,10.74
2019-05-14T16:51:28.123Z,11.26
2019-05-14T16:56:33.731Z,12.05
2019-05-14T17:01:39.007Z,12.43
2019-05-14T17:06:44.255Z,12.69
2019-05-14T17:11:49.504Z,13.24
2019-05-14T17:16:54.733Z,13.40
2019-05-14T17:21:59.976Z,13.60
2019-05-14T17:27:05.409Z,13.44
2019-05-14T17:32:10.648Z,13.43
2019-05-14T17:37:15.940Z,13.09
2019-05-14T17:42:21.512Z,12.04
2019-05-14T17:47:28.875Z,11.19
2019-05-14T17:52:33.698Z,10.76
2019-05-14T17:57:46.587Z,10.50
2019-05-14T18:02:48.418Z,10.24
2019-05-14T18:07:54.017Z,9.92
2019-05-14T18:13:00.466Z,9.66
2019-05-14T18:18:05.867Z,9.56
2019-05-14T18:23:11.938Z,9.30
2019-05-14T18:28:17.967Z,9.05
2019-05-14T18:33:23.733Z,8.89
2019-05-14T18:38:29.199Z,8.75
2019-05-14T18:43:35.182Z,8.59
2019-05-14T18:48:41.415Z,8.39
2019-05-14T18:53:48.910Z,8.27
2019-05-14T18:58:54.316Z,8.20
2019-05-14T19:03:59.558Z,8.11
2019-05-14T19:09:06.165Z,7.98
2019-05-14T19:14:12.260Z,7.88
2019-05-14T19:19:20.490Z,7.75
2019-05-14T19:24:28.496Z,7.60
2019-05-14T19:29:33.933Z,7.44
2019-05-14T19:34:39.649Z,7.21
2019-05-14T19:39:44.960Z,7.10
2019-05-14T19:44:51.003Z,7.02
2019-05-14T19:49:58.174Z,6.92
2019-05-14T19:55:03.153Z,6.87
2019-05-14T20:00:09.425Z,6.75
2019-05-14T20:05:15.023Z,6.71
2019-05-14T20:10:20.245Z,6.62
2019-05-14T20:15:25.457Z,6.53
2019-05-14T20:20:31.045Z,6.57
2019-05-14T20:25:38.591Z,6.57
2019-05-14T20:30:43.328Z,6.75
2019-05-14T20:35:48.880Z,6.80
2019-05-14T20:40:55.426Z,6.77
2019-05-14T20:46:00.685Z,6.73
2019-05-14T20:51:08.994Z,6.57
2019-05-14T20:56:15.863Z,6.50
2019-05-14T21:01:21.378Z,6.41
2019-05-14T21:06:28.098Z,6.33
2019-05-14T21:11:33.313Z,6.17
2019-05-14T21:16:39.311Z,6.10
2019-05-14T21:21:44.782Z,6.07
2019-05-14T21:26:51.244Z,6.07
2019-05-14T21:31:56.740Z,5.98
2019-05-14T21:37:02.548Z,5.88
2019-05-14T21:42:10.838Z,5.85
2019-05-14T21:47:14.753Z,5.96
2019-05-14T21:52:19.998Z,5.92
2019-05-14T21:57:25.143Z,5.80
2019-05-14T22:02:30.713Z,5.69
2019-05-14T22:07:35.829Z,5.64
2019-05-14T22:12:41.218Z,5.63
2019-05-14T22:17:48.964Z,5.61
2019-05-14T22:22:53.220Z,5.51
2019-05-14T22:28:11.155Z,5.30
2019-05-14T22:33:08.185Z,5.25
2019-05-14T22:38:12.485Z,5.29
2019-05-14T22:43:18.283Z,5.27
2019-05-14T22:48:23.487Z,5.20
2019-05-14T22:53:30.352Z,5.09
2019-05-14T22:58:38.049Z,4.98
2019-05-14T23:03:42.647Z,5.04
2019-05-14T23:08:48.742Z,4.96
2019-05-14T23:13:54.244Z,4.91
2019-05-14T23:18:59.387Z,4.84
2019-05-14T23:24:04.544Z,4.72
2019-05-14T23:29:09.701Z,4.65
2019-05-14T23:34:14.842Z,4.69
2019-05-14T23:39:20.235Z,4.65
2019-05-14T23:44:25.323Z,4.68
2019-05-14T23:49:30.828Z,4.58
2019-05-14T23:54:38.103Z,4.45
2019-05-14T23:59:43.559Z,4.39
